createdAt,value
2023-03-27T00:01:00.841Z,2.17
2023-03-27T00:03:32.385Z,1.87
2023-03-27T00:06:01.562Z,1.80
2023-03-27T00:08:29.491Z,2.50
2023-03-27T00:10:57.347Z,2.00
2023-03-27T00:13:25.610Z,1.70
2023-03-27T00:15:54.978Z,2.23
2023-03-27T00:18:25.108Z,1.77
2023-03-27T00:20:54.738Z,1.80
2023-03-27T00:23:22.397Z,2.33
2023-03-27T00:25:50.604Z,1.90
2023-03-27T00:28:18.681Z,2.27
2023-03-27T00:30:46.463Z,2.00
2023-03-27T00:33:14.672Z,1.70
2023-03-27T00:35:46.859Z,2.23
2023-03-27T00:38:16.935Z,2.13
2023-03-27T00:40:45.115Z,1.90
2023-03-27T00:43:20.727Z,2.40
2023-03-27T00:45:49.085Z,2.37
2023-03-27T00:48:17.084Z,2.90
2023-03-27T00:50:46.678Z,2.43
2023-03-27T00:53:21.878Z,1.90
2023-03-27T00:55:52.552Z,1.73
2023-03-27T00:58:23.689Z,3.07
2023-03-27T01:00:55.155Z,2.40
2023-03-27T01:03:25.463Z,3.37
2023-03-27T01:05:55.484Z,3.60
2023-03-27T01:08:24.880Z,2.20
2023-03-27T01:11:01.480Z,2.57
2023-03-27T01:13:47.234Z,2.70
2023-03-27T01:16:22.572Z,2.50
2023-03-27T01:19:01.211Z,2.57
2023-03-27T01:21:56.506Z,2.00
2023-03-27T01:24:52.904Z,2.13
2023-03-27T01:27:30.483Z,2.30
2023-03-27T01:30:08.925Z,2.40
2023-03-27T01:33:25.193Z,2.87
2023-03-27T01:36:23.070Z,2.70
2023-03-27T01:39:22.970Z,2.10
2023-03-27T01:41:58.807Z,1.63
2023-03-27T01:44:43.373Z,1.87
2023-03-27T01:47:22.525Z,2.37
2023-03-27T01:49:55.556Z,1.90
2023-03-27T01:52:28.163Z,1.60
2023-03-27T01:55:03.419Z,2.93
2023-03-27T01:57:48.808Z,2.17
2023-03-27T02:00:22.203Z,1.70
2023-03-27T02:02:55.018Z,1.60
2023-03-27T02:05:28.844Z,2.03
2023-03-27T02:08:00.422Z,1.73
2023-03-27T02:10:32.750Z,1.80
2023-03-27T02:13:08.169Z,1.50
2023-03-27T02:15:41.741Z,1.70
2023-03-27T02:18:12.330Z,1.40
2023-03-27T02:20:42.038Z,1.33
2023-03-27T02:23:09.938Z,2.20
2023-03-27T02:25:39.824Z,1.50
2023-03-27T02:28:23.681Z,1.33
2023-03-27T02:31:06.613Z,1.17
2023-03-27T02:34:08.583Z,2.57
2023-03-27T02:36:45.434Z,1.43
2023-03-27T02:39:20.696Z,1.73
2023-03-27T02:41:54.966Z,1.20
2023-03-27T02:44:31.090Z,1.33
2023-03-27T02:47:05.122Z,1.30
2023-03-27T02:49:37.425Z,1.27
2023-03-27T02:52:11.178Z,1.67
2023-03-27T02:54:43.256Z,1.30
2023-03-27T02:57:16.523Z,1.80
2023-03-27T02:59:50.507Z,1.93
2023-03-27T03:02:24.731Z,1.60
2023-03-27T03:04:59.082Z,1.47
2023-03-27T03:07:27.174Z,1.43
2023-03-27T03:09:56.068Z,1.90
2023-03-27T03:12:24.013Z,2.20
2023-03-27T03:14:53.247Z,1.83
2023-03-27T03:17:21.493Z,1.67
2023-03-27T03:19:49.710Z,1.53
2023-03-27T03:22:17.363Z,1.37
2023-03-27T03:24:44.955Z,1.70
2023-03-27T03:27:14.217Z,3.00
2023-03-27T03:29:43.704Z,1.20
2023-03-27T03:32:12.667Z,1.50
2023-03-27T03:34:44.064Z,1.23
2023-03-27T03:37:11.610Z,1.67
2023-03-27T03:39:39.340Z,1.60
2023-03-27T03:42:07.042Z,2.03
2023-03-27T03:44:34.925Z,1.43
2023-03-27T03:47:02.590Z,1.57
2023-03-27T03:49:31.974Z,1.00
2023-03-27T03:52:03.684Z,1.70
2023-03-27T03:54:32.800Z,1.50
2023-03-27T03:57:00.582Z,1.20
2023-03-27T03:59:28.505Z,1.77
2023-03-27T04:01:56.081Z,1.50
2023-03-27T04:04:23.712Z,2.00
2023-03-27T04:06:52.962Z,1.50
2023-03-27T04:09:20.852Z,1.40
2023-03-27T04:11:48.352Z,1.80
2023-03-27T04:14:16.317Z,1.30
2023-03-27T04:16:44.089Z,1.27
2023-03-27T04:19:11.695Z,1.40
2023-03-27T04:21:39.328Z,1.00
2023-03-27T04:24:09.134Z,1.27
2023-03-27T04:26:36.752Z,1.37
2023-03-27T04:29:10.186Z,1.00
2023-03-27T04:31:39.127Z,1.10
2023-03-27T04:34:08.339Z,1.33
2023-03-27T04:36:35.987Z,1.27
2023-03-27T04:39:03.898Z,1.40
2023-03-27T04:41:32.876Z,1.40
2023-03-27T04:44:04.758Z,1.30
2023-03-27T04:46:33.925Z,1.73
2023-03-27T04:49:01.541Z,1.27
2023-03-27T04:51:30.724Z,1.70
2023-03-27T04:53:58.350Z,1.53
2023-03-27T04:56:26.010Z,1.47
2023-03-27T04:58:55.346Z,1.50
2023-03-27T05:01:25.199Z,1.57
2023-03-27T05:03:53.597Z,1.70
2023-03-27T05:06:21.278Z,1.50
2023-03-27T05:08:49.250Z,1.57
2023-03-27T05:11:16.896Z,1.80
2023-03-27T05:13:44.521Z,1.40
2023-03-27T05:16:13.584Z,1.40
2023-03-27T05:18:42.105Z,1.27
2023-03-27T05:21:10.702Z,1.40
2023-03-27T05:23:38.816Z,1.47
2023-03-27T05:26:06.490Z,2.13
2023-03-27T05:28:41.261Z,1.40
2023-03-27T05:31:10.607Z,1.50
2023-03-27T05:33:39.857Z,1.50
2023-03-27T05:36:08.243Z,1.47
2023-03-27T05:38:35.931Z,1.47
2023-03-27T05:41:04.209Z,1.60
2023-03-27T05:43:32.081Z,1.30
2023-03-27T05:45:59.790Z,1.37
2023-03-27T05:48:27.933Z,1.43
2023-03-27T05:51:05.901Z,1.40
2023-03-27T05:53:33.571Z,1.80
2023-03-27T05:56:02.765Z,1.67
2023-03-27T05:58:31.561Z,1.67
2023-03-27T06:00:59.394Z,1.50
2023-03-27T06:03:30.323Z,1.37
2023-03-27T06:06:01.011Z,2.10
2023-03-27T06:08:29.490Z,1.60
2023-03-27T06:10:57.309Z,1.90
2023-03-27T06:13:25.152Z,2.03
2023-03-27T06:15:56.417Z,1.27
2023-03-27T06:18:29.045Z,2.13
2023-03-27T06:21:01.710Z,1.80
2023-03-27T06:23:29.871Z,1.90
2023-03-27T06:25:58.606Z,1.80
2023-03-27T06:28:26.791Z,1.67
2023-03-27T06:30:54.482Z,1.83
2023-03-27T06:33:22.492Z,1.90
2023-03-27T06:35:53.425Z,2.10
2023-03-27T06:38:23.499Z,1.73
2023-03-27T06:40:51.622Z,1.67
2023-03-27T06:43:22.313Z,1.57
2023-03-27T06:45:51.294Z,1.60
2023-03-27T06:48:22.653Z,1.57
2023-03-27T06:50:52.442Z,1.97
2023-03-27T06:53:27.961Z,1.70
2023-03-27T06:55:57.107Z,1.40
2023-03-27T06:58:25.301Z,1.87
2023-03-27T07:00:54.174Z,1.63
2023-03-27T07:03:23.977Z,1.30
2023-03-27T07:05:51.685Z,3.00
2023-03-27T07:08:24.131Z,1.40
2023-03-27T07:13:26.105Z,1.50
2023-03-27T07:15:54.826Z,1.80
2023-03-27T07:18:23.051Z,1.50
2023-03-27T07:20:51.263Z,1.87
2023-03-27T07:23:18.847Z,1.70
2023-03-27T07:25:46.708Z,1.90
2023-03-27T07:28:18.142Z,2.27
2023-03-27T07:30:46.135Z,1.60
2023-03-27T07:33:14.366Z,2.30
2023-03-27T07:35:43.179Z,2.10
2023-03-27T07:38:10.854Z,1.77
2023-03-27T07:40:40.771Z,2.20
2023-03-27T07:43:09.086Z,1.77
2023-03-27T07:45:38.457Z,2.03
2023-03-27T07:48:07.107Z,1.20
2023-03-27T07:50:36.005Z,1.43
2023-03-27T07:53:03.955Z,1.60
2023-03-27T07:55:31.663Z,1.40
2023-03-27T07:58:03.307Z,1.40
2023-03-27T08:00:35.503Z,1.87
2023-03-27T08:03:11.077Z,1.60
2023-03-27T08:05:41.477Z,1.60
2023-03-27T08:08:10.944Z,2.27
2023-03-27T08:10:38.944Z,2.53
2023-03-27T08:13:06.708Z,2.00
2023-03-27T08:15:34.289Z,1.80
2023-03-27T08:18:02.470Z,1.57
2023-03-27T08:20:31.773Z,1.60
2023-03-27T08:23:00.672Z,1.30
2023-03-27T08:25:29.742Z,1.60
2023-03-27T08:27:57.474Z,1.57
2023-03-27T08:30:27.412Z,1.63
2023-03-27T08:32:55.668Z,1.63
2023-03-27T08:35:23.807Z,1.37
2023-03-27T08:37:53.908Z,1.53
2023-03-27T08:40:26.438Z,1.60
2023-03-27T08:42:57.762Z,1.50
2023-03-27T08:45:28.436Z,1.33
2023-03-27T08:48:02.064Z,2.30
2023-03-27T08:50:34.733Z,1.60
2023-03-27T08:53:09.046Z,1.43
2023-03-27T08:55:42.098Z,3.10
2023-03-27T08:58:18.427Z,1.60
2023-03-27T09:00:49.810Z,1.00
2023-03-27T09:03:23.002Z,2.00
2023-03-27T09:05:56.431Z,1.13
2023-03-27T09:08:36.952Z,1.77
2023-03-27T09:11:10.808Z,1.40
2023-03-27T09:13:43.684Z,1.27
2023-03-27T09:16:19.736Z,1.50
2023-03-27T09:18:55.174Z,4.13
2023-03-27T09:21:32.354Z,1.30
2023-03-27T09:24:07.260Z,1.77
2023-03-27T09:26:37.434Z,1.93
2023-03-27T09:29:19.875Z,2.77
2023-03-27T09:31:49.702Z,1.93
2023-03-27T09:34:23.542Z,1.43
2023-03-27T09:36:51.591Z,1.23
2023-03-27T09:39:27.418Z,1.23
2023-03-27T09:42:00.208Z,1.50
2023-03-27T09:44:37.993Z,1.33
2023-03-27T09:47:14.242Z,1.73
2023-03-27T09:49:46.622Z,1.20
2023-03-27T09:52:35.910Z,1.30
2023-03-27T09:55:24.155Z,1.50
2023-03-27T09:57:58.656Z,1.37
2023-03-27T10:00:31.759Z,1.20
2023-03-27T10:03:05.718Z,1.30
2023-03-27T10:05:33.813Z,0.87
2023-03-27T10:08:02.543Z,1.60
2023-03-27T10:10:37.783Z,1.20
2023-03-27T10:13:11.630Z,1.13
2023-03-27T10:15:41.213Z,1.40
2023-03-27T10:18:23.732Z,1.30
2023-03-27T10:20:52.112Z,1.20
2023-03-27T10:23:25.203Z,1.40
2023-03-27T10:25:59.571Z,1.27
2023-03-27T10:28:29.594Z,0.90
2023-03-27T10:31:02.057Z,1.20
2023-03-27T10:33:36.344Z,1.33
2023-03-27T10:36:05.476Z,0.90
2023-03-27T10:38:34.319Z,1.23
2023-03-27T10:41:05.158Z,1.30
2023-03-27T10:43:40.143Z,1.10
2023-03-27T10:46:13.918Z,4.60
2023-03-27T10:48:52.030Z,1.40
2023-03-27T10:51:45.879Z,1.23
2023-03-27T10:54:19.933Z,1.00
2023-03-27T10:56:58.106Z,0.93
2023-03-27T10:59:41.055Z,0.80
2023-03-27T11:02:18.644Z,2.03
2023-03-27T11:04:51.795Z,1.00
2023-03-27T11:07:27.890Z,1.10
2023-03-27T11:10:03.710Z,0.97
2023-03-27T11:12:37.904Z,0.90
2023-03-27T11:15:15.371Z,1.17
2023-03-27T11:17:48.913Z,1.80
2023-03-27T11:20:24.961Z,1.23
2023-03-27T11:23:00.913Z,1.40
2023-03-27T11:25:38.765Z,1.00
2023-03-27T11:28:21.012Z,1.10
2023-03-27T11:30:55.976Z,1.20
2023-03-27T11:33:38.290Z,1.50
2023-03-27T11:36:34.066Z,2.10
2023-03-27T11:39:15.252Z,0.93
2023-03-27T11:41:43.653Z,1.20
2023-03-27T11:44:12.678Z,1.10
2023-03-27T11:46:56.291Z,0.90
2023-03-27T11:49:37.470Z,1.17
2023-03-27T11:52:15.601Z,0.90
2023-03-27T11:54:58.507Z,1.43
2023-03-27T11:57:27.488Z,1.20
2023-03-27T12:00:28.017Z,0.97
2023-03-27T12:03:19.215Z,1.13
2023-03-27T12:05:58.966Z,0.93
2023-03-27T12:08:40.954Z,1.00
2023-03-27T12:11:11.981Z,1.00
2023-03-27T12:14:02.035Z,1.00
2023-03-27T12:16:48.902Z,1.13
2023-03-27T12:19:38.972Z,0.90
2023-03-27T12:22:24.312Z,4.37
2023-03-27T12:25:04.819Z,6.90
2023-03-27T12:27:49.795Z,2.60
2023-03-27T12:30:26.772Z,1.13
2023-03-27T12:33:12.741Z,1.50
2023-03-27T12:35:47.074Z,2.33
2023-03-27T12:38:23.665Z,1.20
2023-03-27T12:41:03.106Z,1.13
2023-03-27T12:43:33.820Z,1.10
2023-03-27T12:46:17.504Z,1.17
2023-03-27T12:48:52.789Z,2.60
2023-03-27T12:51:21.571Z,1.27
2023-03-27T12:53:51.805Z,1.20
2023-03-27T12:56:27.333Z,1.30
2023-03-27T12:58:56.736Z,1.03
2023-03-27T13:01:52.199Z,1.63
2023-03-27T13:04:44.628Z,1.40
2023-03-27T13:07:20.060Z,1.20
2023-03-27T13:09:59.553Z,1.00
2023-03-27T13:12:46.194Z,1.30
2023-03-27T13:15:31.555Z,1.13
2023-03-27T13:18:28.998Z,1.40
2023-03-27T13:21:08.621Z,1.07
2023-03-27T13:23:56.009Z,0.80
2023-03-27T13:26:37.530Z,1.30
2023-03-27T13:29:16.351Z,1.30
2023-03-27T13:31:58.498Z,1.27
2023-03-27T13:34:37.260Z,1.00
2023-03-27T13:37:48.319Z,1.43
2023-03-27T13:40:23.289Z,1.40
2023-03-27T13:42:54.187Z,1.30
2023-03-27T13:45:26.256Z,1.23
2023-03-27T13:48:30.237Z,1.33
2023-03-27T13:51:22.969Z,1.00
2023-03-27T13:54:04.052Z,1.47
2023-03-27T13:56:42.018Z,1.07
2023-03-27T13:59:36.720Z,1.10
2023-03-27T14:02:26.099Z,0.90
2023-03-27T14:05:10.897Z,1.10
2023-03-27T14:08:00.766Z,1.43
2023-03-27T14:10:43.878Z,1.33
2023-03-27T14:13:32.311Z,1.43
2023-03-27T14:16:22.364Z,1.20
2023-03-27T14:19:07.985Z,2.37
2023-03-27T14:21:52.255Z,1.47
2023-03-27T14:24:32.438Z,12.13
2023-03-27T14:27:02.632Z,20.57
2023-03-27T14:29:32.368Z,6.97
2023-03-27T14:32:04.333Z,4.50
2023-03-27T14:34:47.220Z,1.87
2023-03-27T14:37:37.534Z,1.23
2023-03-27T14:40:20.940Z,1.40
2023-03-27T14:42:51.141Z,1.23
2023-03-27T14:45:24.281Z,1.10
2023-03-27T14:47:55.609Z,0.83
2023-03-27T14:50:25.044Z,1.03
2023-03-27T14:53:02.892Z,1.20
2023-03-27T14:55:35.744Z,1.20
2023-03-27T14:58:11.490Z,1.43
2023-03-27T15:00:42.101Z,1.07
2023-03-27T15:03:16.074Z,1.20
2023-03-27T15:05:57.216Z,1.20
2023-03-27T15:08:28.599Z,1.17
2023-03-27T15:10:56.929Z,1.07
2023-03-27T15:13:27.494Z,1.20
2023-03-27T15:15:59.262Z,1.00
2023-03-27T15:18:33.233Z,1.23
2023-03-27T15:21:04.120Z,1.50
2023-03-27T15:23:38.940Z,1.20
2023-03-27T15:26:12.826Z,1.20
2023-03-27T15:28:49.865Z,1.57
2023-03-27T15:31:18.922Z,1.30
2023-03-27T15:33:53.456Z,2.50
2023-03-27T15:36:27.717Z,1.50
2023-03-27T15:38:56.637Z,1.33
2023-03-27T15:41:39.386Z,2.03
2023-03-27T15:44:12.932Z,1.40
2023-03-27T15:46:53.477Z,1.50
2023-03-27T15:49:24.521Z,2.00
2023-03-27T15:51:52.598Z,2.00
2023-03-27T15:54:27.108Z,1.60
2023-03-27T15:57:10.588Z,1.30
2023-03-27T15:59:52.047Z,1.30
2023-03-27T16:02:22.979Z,1.90
2023-03-27T16:04:54.911Z,1.30
2023-03-27T16:07:27.653Z,1.80
2023-03-27T16:09:58.305Z,1.30
2023-03-27T16:12:31.334Z,1.90
2023-03-27T16:15:04.318Z,0.90
2023-03-27T16:17:39.474Z,1.10
2023-03-27T16:20:40.200Z,0.97
2023-03-27T16:23:07.807Z,0.93
2023-03-27T16:25:35.401Z,1.10
2023-03-27T16:28:03.382Z,0.80
2023-03-27T16:30:35.276Z,0.90
2023-03-27T16:33:03.913Z,0.80
2023-03-27T16:35:32.370Z,1.10
2023-03-27T16:38:02.084Z,0.70
2023-03-27T16:40:29.602Z,0.87
2023-03-27T16:42:57.480Z,0.97
2023-03-27T16:45:25.424Z,0.70
2023-03-27T16:47:54.833Z,0.90
2023-03-27T16:50:25.610Z,0.80
2023-03-27T16:52:53.942Z,0.80
2023-03-27T16:55:21.666Z,0.80
2023-03-27T16:57:49.558Z,0.70
2023-03-27T17:00:20.041Z,0.90
2023-03-27T17:02:48.393Z,1.23
2023-03-27T17:05:18.891Z,0.97
2023-03-27T17:07:49.717Z,1.00
2023-03-27T17:10:17.693Z,0.70
2023-03-27T17:12:45.596Z,1.07
2023-03-27T17:15:15.012Z,1.00
2023-03-27T17:17:42.643Z,1.00
2023-03-27T17:20:12.067Z,0.80
2023-03-27T17:22:41.159Z,1.03
2023-03-27T17:25:09.945Z,0.97
2023-03-27T17:27:37.699Z,1.40
2023-03-27T17:30:06.695Z,1.33
2023-03-27T17:32:34.730Z,1.00
2023-03-27T17:35:04.516Z,1.00
2023-03-27T17:37:32.570Z,0.90
2023-03-27T17:40:01.650Z,0.90
2023-03-27T17:42:29.279Z,0.90
2023-03-27T17:44:57.006Z,0.83
2023-03-27T17:47:26.898Z,1.20
2023-03-27T17:49:54.671Z,0.90
2023-03-27T17:52:23.679Z,1.40
2023-03-27T17:54:51.375Z,1.23
2023-03-27T17:57:20.698Z,1.00
2023-03-27T17:59:48.335Z,1.30
2023-03-27T18:02:18.270Z,1.10
2023-03-27T18:04:48.032Z,1.23
2023-03-27T18:07:16.785Z,1.20
2023-03-27T18:09:44.459Z,1.00
2023-03-27T18:12:12.157Z,0.90
2023-03-27T18:14:41.500Z,1.20
2023-03-27T18:17:09.211Z,1.00
2023-03-27T18:19:37.288Z,0.80
2023-03-27T18:22:05.134Z,1.23
2023-03-27T18:24:32.904Z,1.03
2023-03-27T18:27:00.658Z,1.17
2023-03-27T18:29:30.984Z,1.03
2023-03-27T18:32:00.320Z,1.47
2023-03-27T18:34:28.126Z,1.20
2023-03-27T18:36:56.288Z,1.50
2023-03-27T18:39:24.092Z,1.10
2023-03-27T18:41:53.269Z,1.50
2023-03-27T18:44:21.480Z,1.30
2023-03-27T18:46:49.157Z,1.40
2023-03-27T18:49:24.675Z,2.10
2023-03-27T18:51:52.837Z,1.03
2023-03-27T18:54:21.457Z,1.40
2023-03-27T18:56:49.367Z,1.77
2023-03-27T18:59:17.480Z,1.50
2023-03-27T19:01:45.090Z,1.53
2023-03-27T19:04:14.503Z,1.37
2023-03-27T19:06:46.614Z,1.30
2023-03-27T19:09:14.731Z,1.73
2023-03-27T19:11:43.784Z,1.70
2023-03-27T19:14:12.215Z,1.80
2023-03-27T19:16:40.109Z,1.40
2023-03-27T19:19:07.833Z,1.87
2023-03-27T19:21:35.769Z,1.50
2023-03-27T19:24:05.288Z,2.23
2023-03-27T19:26:35.144Z,2.20
2023-03-27T19:29:02.815Z,1.70
2023-03-27T19:31:33.468Z,2.63
2023-03-27T19:34:02.028Z,2.73
2023-03-27T19:36:30.181Z,2.43
2023-03-27T19:38:58.532Z,2.60
2023-03-27T19:41:28.052Z,2.00
2023-03-27T19:43:56.159Z,2.23
2023-03-27T19:46:25.002Z,1.60
2023-03-27T19:48:53.027Z,2.10
2023-03-27T19:51:21.345Z,1.67
2023-03-27T19:53:49.045Z,1.90
2023-03-27T19:56:16.924Z,1.90
2023-03-27T19:58:46.019Z,2.13
2023-03-27T20:01:13.769Z,1.90
2023-03-27T20:03:41.869Z,1.67
2023-03-27T20:06:18.036Z,2.07
2023-03-27T20:08:46.602Z,1.83
2023-03-27T20:11:14.567Z,2.10
2023-03-27T20:13:55.628Z,1.60
2023-03-27T20:16:27.923Z,1.63
2023-03-27T20:19:04.330Z,1.97
2023-03-27T20:21:34.345Z,2.17
2023-03-27T20:24:02.323Z,1.97
2023-03-27T20:26:32.445Z,1.90
2023-03-27T20:29:00.398Z,2.13
2023-03-27T20:31:29.557Z,1.90
2023-03-27T20:33:57.611Z,2.07
2023-03-27T20:36:25.344Z,2.00
2023-03-27T20:38:53.527Z,1.90
2023-03-27T20:41:21.775Z,2.23
2023-03-27T20:43:50.944Z,2.30
2023-03-27T20:46:18.776Z,2.30
2023-03-27T20:48:54.140Z,2.10
2023-03-27T20:51:25.138Z,2.20
2023-03-27T20:53:56.129Z,2.50
2023-03-27T20:56:29.195Z,2.27
2023-03-27T20:58:57.314Z,1.83
2023-03-27T21:01:27.483Z,2.00
2023-03-27T21:03:58.460Z,2.30
2023-03-27T21:06:26.547Z,2.20
2023-03-27T21:08:54.660Z,2.30
2023-03-27T21:11:22.820Z,2.17
2023-03-27T21:13:51.291Z,2.50
2023-03-27T21:16:19.486Z,2.07
2023-03-27T21:18:47.401Z,2.67
2023-03-27T21:21:16.649Z,2.33
2023-03-27T21:23:44.673Z,2.47
2023-03-27T21:26:14.599Z,1.90
2023-03-27T21:28:42.451Z,2.27
2023-03-27T21:31:11.470Z,1.90
2023-03-27T21:33:40.117Z,2.27
2023-03-27T21:36:10.003Z,2.07
2023-03-27T21:38:38.997Z,1.83
2023-03-27T21:41:07.853Z,2.03
2023-03-27T21:43:35.523Z,1.90
2023-03-27T21:46:04.694Z,1.80
2023-03-27T21:48:32.297Z,2.40
2023-03-27T21:51:01.119Z,2.40
2023-03-27T21:53:28.863Z,2.33
2023-03-27T21:55:58.522Z,2.03
2023-03-27T21:58:27.011Z,2.33
2023-03-27T22:00:57.200Z,2.37
2023-03-27T22:03:25.032Z,2.20
2023-03-27T22:06:07.996Z,2.40
2023-03-27T22:08:39.277Z,2.37
2023-03-27T22:11:08.363Z,2.87
2023-03-27T22:13:36.897Z,2.20
2023-03-27T22:16:11.890Z,2.90
2023-03-27T22:18:39.736Z,2.13
2023-03-27T22:21:16.417Z,2.30
2023-03-27T22:23:46.284Z,2.80
2023-03-27T22:26:15.283Z,2.67
2023-03-27T22:28:43.089Z,2.27
2023-03-27T22:31:11.490Z,2.53
2023-03-27T22:33:39.717Z,2.40
2023-03-27T22:36:11.025Z,2.20
2023-03-27T22:38:39.386Z,2.33
2023-03-27T22:41:09.372Z,2.43
2023-03-27T22:43:38.632Z,2.47
2023-03-27T22:46:07.067Z,2.37
2023-03-27T22:48:35.332Z,2.30
2023-03-27T22:51:03.630Z,2.20
2023-03-27T22:53:32.580Z,2.10
2023-03-27T22:56:01.165Z,2.30
2023-03-27T22:58:31.674Z,2.40
2023-03-27T23:01:00.676Z,2.57
2023-03-27T23:03:28.756Z,2.40
2023-03-27T23:05:57.286Z,1.80
2023-03-27T23:08:28.208Z,2.40
2023-03-27T23:10:57.164Z,2.40
2023-03-27T23:13:25.407Z,2.00
2023-03-27T23:15:53.148Z,2.00
2023-03-27T23:18:24.499Z,2.30
2023-03-27T23:20:56.087Z,2.70
2023-03-27T23:23:23.798Z,2.50
2023-03-27T23:25:51.538Z,2.60
2023-03-27T23:28:19.290Z,2.00
2023-03-27T23:30:53.672Z,2.40
2023-03-27T23:33:24.764Z,2.47
2023-03-27T23:35:52.482Z,2.10
2023-03-27T23:38:20.169Z,2.17
2023-03-27T23:40:54.831Z,2.00
2023-03-27T23:43:22.426Z,2.00
2023-03-27T23:45:49.994Z,2.13
2023-03-27T23:48:17.761Z,2.10
2023-03-27T23:50:46.783Z,2.30
2023-03-27T23:53:14.534Z,2.27
2023-03-27T23:55:42.061Z,2.30
2023-03-27T23:58:09.657Z,2.90
